Terminal Aerodrome Forecast
Issued by NWS

Home | Current Version | Previous Version | Text Only | Print | Product List | Glossary On
Versions: 1 2 3 4 5 6 7 8 9 10 11 12
000
FTUS46 KPDT 021720
TAFYKM
TAF
KYKM 021720Z 0218/0318 27007KT P6SM FEW250
     FM022000 12005KT P6SM FEW150 SCT250
     FM030200 32010KT P6SM FEW150 SCT250
     FM031200 29008KT P6SM SCT120 BKN150 OVC180=

USA.gov is the U.S. government's official web portal to all federal, state and local government web resources and services.